sensor_id;sensor_type;location;lat;lon;timestamp;temperature;humidity
10149;DHT22;5115;50.920;6.376;2023-08-07T00:02:16;14.30;99.90
10149;DHT22;5115;50.920;6.376;2023-08-07T00:12:00;14.20;99.90
10149;DHT22;5115;50.920;6.376;2023-08-07T00:26:35;14.30;99.90
10149;DHT22;5115;50.920;6.376;2023-08-07T00:31:27;14.30;99.90
10149;DHT22;5115;50.920;6.376;2023-08-07T00:33:59;14.20;99.90
10149;DHT22;5115;50.920;6.376;2023-08-07T00:41:20;14.20;99.90
10149;DHT22;5115;50.920;6.376;2023-08-07T00:43:45;14.20;99.90
10149;DHT22;5115;50.920;6.376;2023-08-07T00:46:11;14.10;99.90
10149;DHT22;5115;50.920;6.376;2023-08-07T01:08:11;14.40;99.90
10149;DHT22;5115;50.920;6.376;2023-08-07T01:13:13;14.40;99.90
10149;DHT22;5115;50.920;6.376;2023-08-07T01:15:44;14.40;99.90
10149;DHT22;5115;50.920;6.376;2023-08-07T01:18:10;14.40;99.90
10149;DHT22;5115;50.920;6.376;2023-08-07T01:20:37;14.30;99.90
10149;DHT22;5115;50.920;6.376;2023-08-07T01:23:02;14.30;99.90
10149;DHT22;5115;50.920;6.376;2023-08-07T01:25:28;14.30;99.90
10149;DHT22;5115;50.920;6.376;2023-08-07T01:28:26;14.30;99.90
10149;DHT22;5115;50.920;6.376;2023-08-07T01:30:56;14.30;99.90
10149;DHT22;5115;50.920;6.376;2023-08-07T01:33:32;14.30;99.90
10149;DHT22;5115;50.920;6.376;2023-08-07T01:36:02;14.30;99.90
10149;DHT22;5115;50.920;6.376;2023-08-07T01:38:30;14.30;99.90
10149;DHT22;5115;50.920;6.376;2023-08-07T01:40:57;14.40;99.90
10149;DHT22;5115;50.920;6.376;2023-08-07T01:50:42;14.30;99.90
10149;DHT22;5115;50.920;6.376;2023-08-07T01:55:39;14.30;99.90
10149;DHT22;5115;50.920;6.376;2023-08-07T02:05:24;14.30;99.90
10149;DHT22;5115;50.920;6.376;2023-08-07T02:07:50;14.30;99.90
10149;DHT22;5115;50.920;6.376;2023-08-07T02:12:42;14.40;99.90
10149;DHT22;5115;50.920;6.376;2023-08-07T02:15:07;14.30;99.90
10149;DHT22;5115;50.920;6.376;2023-08-07T02:20:01;14.30;99.90
10149;DHT22;5115;50.920;6.376;2023-08-07T02:22:26;14.30;99.90
10149;DHT22;5115;50.920;6.376;2023-08-07T02:27:18;14.30;99.90
10149;DHT22;5115;50.920;6.376;2023-08-07T02:34:36;14.30;99.90
10149;DHT22;5115;50.920;6.376;2023-08-07T02:39:28;14.20;99.90
10149;DHT22;5115;50.920;6.376;2023-08-07T02:46:47;14.30;99.90
10149;DHT22;5115;50.920;6.376;2023-08-07T02:58:58;14.20;99.90
10149;DHT22;5115;50.920;6.376;2023-08-07T03:03:50;14.30;99.90
10149;DHT22;5115;50.920;6.376;2023-08-07T03:16:03;14.30;99.90
10149;DHT22;5115;50.920;6.376;2023-08-07T03:23:23;14.20;99.90
10149;DHT22;5115;50.920;6.376;2023-08-07T03:30:41;14.10;99.90
10149;DHT22;5115;50.920;6.376;2023-08-07T03:42:51;14.20;99.90
10149;DHT22;5115;50.920;6.376;2023-08-07T03:55:01;14.20;99.90
10149;DHT22;5115;50.920;6.376;2023-08-07T03:57:26;14.10;99.90
10149;DHT22;5115;50.920;6.376;2023-08-07T04:04:45;14.10;99.90
10149;DHT22;5115;50.920;6.376;2023-08-07T04:07:11;14.20;99.90
10149;DHT22;5115;50.920;6.376;2023-08-07T04:09:36;14.20;99.90
10149;DHT22;5115;50.920;6.376;2023-08-07T04:12:02;14.20;99.90
10149;DHT22;5115;50.920;6.376;2023-08-07T04:14:28;14.10;99.90
10149;DHT22;5115;50.920;6.376;2023-08-07T04:16:57;14.10;99.90
10149;DHT22;5115;50.920;6.376;2023-08-07T04:21:49;14.10;99.90
10149;DHT22;5115;50.920;6.376;2023-08-07T04:29:06;14.00;99.90
10149;DHT22;5115;50.920;6.376;2023-08-07T04:38:51;14.00;99.90
10149;DHT22;5115;50.920;6.376;2023-08-07T04:41:17;14.00;99.90
10149;DHT22;5115;50.920;6.376;2023-08-07T04:46:09;14.00;99.90
10149;DHT22;5115;50.920;6.376;2023-08-07T04:48:36;14.00;99.90
10149;DHT22;5115;50.920;6.376;2023-08-07T04:51:02;14.10;99.90
10149;DHT22;5115;50.920;6.376;2023-08-07T04:53:28;14.10;99.90
10149;DHT22;5115;50.920;6.376;2023-08-07T05:00:46;14.00;99.90
10149;DHT22;5115;50.920;6.376;2023-08-07T05:03:12;14.00;99.90
10149;DHT22;5115;50.920;6.376;2023-08-07T05:15:25;14.20;99.90
10149;DHT22;5115;50.920;6.376;2023-08-07T05:17:51;14.00;99.90
10149;DHT22;5115;50.920;6.376;2023-08-07T05:20:17;14.20;99.90
10149;DHT22;5115;50.920;6.376;2023-08-07T05:22:43;14.30;99.90
10149;DHT22;5115;50.920;6.376;2023-08-07T05:27:37;14.30;99.90
10149;DHT22;5115;50.920;6.376;2023-08-07T05:30:05;14.30;99.90
10149;DHT22;5115;50.920;6.376;2023-08-07T05:32:30;14.40;99.90
10149;DHT22;5115;50.920;6.376;2023-08-07T05:37:23;14.30;99.90
10149;DHT22;5115;50.920;6.376;2023-08-07T05:42:15;14.40;99.90
10149;DHT22;5115;50.920;6.376;2023-08-07T05:47:07;14.40;99.90
10149;DHT22;5115;50.920;6.376;2023-08-07T05:49:33;14.40;99.90
10149;DHT22;5115;50.920;6.376;2023-08-07T05:54:25;14.40;99.90
10149;DHT22;5115;50.920;6.376;2023-08-07T05:56:50;14.40;99.90
10149;DHT22;5115;50.920;6.376;2023-08-07T05:59:16;14.40;99.90
10149;DHT22;5115;50.920;6.376;2023-08-07T06:01:42;14.40;99.90
10149;DHT22;5115;50.920;6.376;2023-08-07T06:21:12;14.40;99.90
10149;DHT22;5115;50.920;6.376;2023-08-07T06:23:37;14.30;99.90
10149;DHT22;5115;50.920;6.376;2023-08-07T06:28:32;14.40;99.90
10149;DHT22;5115;50.920;6.376;2023-08-07T06:31:09;14.50;99.90
10149;DHT22;5115;50.920;6.376;2023-08-07T06:36:03;14.50;99.90
10149;DHT22;5115;50.920;6.376;2023-08-07T06:43:22;14.50;99.90
10149;DHT22;5115;50.920;6.376;2023-08-07T06:45:53;14.50;99.90
10149;DHT22;5115;50.920;6.376;2023-08-07T06:50:46;14.40;99.90
10149;DHT22;5115;50.920;6.376;2023-08-07T06:53:12;14.40;99.90
10149;DHT22;5115;50.920;6.376;2023-08-07T07:15:06;14.30;99.90
10149;DHT22;5115;50.920;6.376;2023-08-07T07:24:50;14.60;99.90
10149;DHT22;5115;50.920;6.376;2023-08-07T07:29:42;14.80;99.90
10149;DHT22;5115;50.920;6.376;2023-08-07T07:36:59;15.00;99.90
10149;DHT22;5115;50.920;6.376;2023-08-07T07:39:25;15.00;99.90
10149;DHT22;5115;50.920;6.376;2023-08-07T07:41:50;15.00;99.90
10149;DHT22;5115;50.920;6.376;2023-08-07T07:46:42;15.40;99.90
10149;DHT22;5115;50.920;6.376;2023-08-07T07:54:00;15.60;99.90
10149;DHT22;5115;50.920;6.376;2023-08-07T07:56:26;15.70;99.90
10149;DHT22;5115;50.920;6.376;2023-08-07T07:58:52;15.80;99.90
10149;DHT22;5115;50.920;6.376;2023-08-07T08:01:17;15.90;99.90
10149;DHT22;5115;50.920;6.376;2023-08-07T08:03:45;15.90;99.90
10149;DHT22;5115;50.920;6.376;2023-08-07T08:06:13;16.00;99.90
10149;DHT22;5115;50.920;6.376;2023-08-07T08:08:39;16.20;99.90
10149;DHT22;5115;50.920;6.376;2023-08-07T08:11:04;16.30;99.90
10149;DHT22;5115;50.920;6.376;2023-08-07T08:13:30;16.30;99.90
10149;DHT22;5115;50.920;6.376;2023-08-07T08:15:56;16.30;99.90
10149;DHT22;5115;50.920;6.376;2023-08-07T08:25:39;16.40;99.90
10149;DHT22;5115;50.920;6.376;2023-08-07T08:28:05;16.50;99.90
10149;DHT22;5115;50.920;6.376;2023-08-07T08:32:56;16.50;99.90
10149;DHT22;5115;50.920;6.376;2023-08-07T08:35:22;16.40;99.90
10149;DHT22;5115;50.920;6.376;2023-08-07T08:37:48;16.60;99.90
10149;DHT22;5115;50.920;6.376;2023-08-07T08:40:13;16.70;99.90
10149;DHT22;5115;50.920;6.376;2023-08-07T08:42:43;17.00;99.90
10149;DHT22;5115;50.920;6.376;2023-08-07T08:45:13;17.10;99.90
10149;DHT22;5115;50.920;6.376;2023-08-07T08:47:39;17.00;99.90
10149;DHT22;5115;50.920;6.376;2023-08-07T08:50:11;17.10;99.90
10149;DHT22;5115;50.920;6.376;2023-08-07T08:52:41;17.00;99.90
10149;DHT22;5115;50.920;6.376;2023-08-07T08:55:08;17.20;99.90
10149;DHT22;5115;50.920;6.376;2023-08-07T08:57:34;17.30;99.90
10149;DHT22;5115;50.920;6.376;2023-08-07T09:00:01;17.40;99.90
10149;DHT22;5115;50.920;6.376;2023-08-07T09:02:32;17.40;99.90
10149;DHT22;5115;50.920;6.376;2023-08-07T09:04:58;17.30;99.90
10149;DHT22;5115;50.920;6.376;2023-08-07T09:07:24;17.20;99.90
10149;DHT22;5115;50.920;6.376;2023-08-07T09:09:50;17.30;99.90
10149;DHT22;5115;50.920;6.376;2023-08-07T09:12:20;17.60;99.90
10149;DHT22;5115;50.920;6.376;2023-08-07T09:14:56;17.90;99.90
10149;DHT22;5115;50.920;6.376;2023-08-07T09:17:24;18.00;99.90
10149;DHT22;5115;50.920;6.376;2023-08-07T09:19:50;18.10;99.90
10149;DHT22;5115;50.920;6.376;2023-08-07T09:27:08;18.10;99.90
10149;DHT22;5115;50.920;6.376;2023-08-07T09:29:36;18.10;99.90
10149;DHT22;5115;50.920;6.376;2023-08-07T09:32:17;18.10;99.90
10149;DHT22;5115;50.920;6.376;2023-08-07T09:34:44;18.20;99.90
10149;DHT22;5115;50.920;6.376;2023-08-07T09:37:09;18.40;99.90
10149;DHT22;5115;50.920;6.376;2023-08-07T09:39:38;18.60;99.90
10149;DHT22;5115;50.920;6.376;2023-08-07T09:42:04;19.00;99.90
10149;DHT22;5115;50.920;6.376;2023-08-07T09:44:36;18.80;99.90
10149;DHT22;5115;50.920;6.376;2023-08-07T09:47:12;18.90;99.90
10149;DHT22;5115;50.920;6.376;2023-08-07T09:49:38;19.30;99.90
10149;DHT22;5115;50.920;6.376;2023-08-07T09:52:06;19.70;99.90
10149;DHT22;5115;50.920;6.376;2023-08-07T09:54:33;20.00;99.90
10149;DHT22;5115;50.920;6.376;2023-08-07T09:57:00;20.20;99.90
10149;DHT22;5115;50.920;6.376;2023-08-07T09:59:27;20.00;99.90
10149;DHT22;5115;50.920;6.376;2023-08-07T10:01:54;19.90;99.90
10149;DHT22;5115;50.920;6.376;2023-08-07T10:04:23;19.90;99.90
10149;DHT22;5115;50.920;6.376;2023-08-07T10:06:51;20.20;99.90
10149;DHT22;5115;50.920;6.376;2023-08-07T10:09:16;20.20;99.90
10149;DHT22;5115;50.920;6.376;2023-08-07T10:11:42;19.90;99.90
10149;DHT22;5115;50.920;6.376;2023-08-07T10:14:12;19.60;99.90
10149;DHT22;5115;50.920;6.376;2023-08-07T10:16:40;19.50;99.90
10149;DHT22;5115;50.920;6.376;2023-08-07T10:19:10;19.10;99.90
10149;DHT22;5115;50.920;6.376;2023-08-07T10:21:38;19.30;99.90
10149;DHT22;5115;50.920;6.376;2023-08-07T10:24:04;20.00;99.90
10149;DHT22;5115;50.920;6.376;2023-08-07T10:26:33;20.10;99.90
10149;DHT22;5115;50.920;6.376;2023-08-07T10:29:02;20.10;99.90
10149;DHT22;5115;50.920;6.376;2023-08-07T10:31:30;20.40;99.90
10149;DHT22;5115;50.920;6.376;2023-08-07T10:33:57;20.10;99.90
10149;DHT22;5115;50.920;6.376;2023-08-07T10:36:23;20.10;99.90
10149;DHT22;5115;50.920;6.376;2023-08-07T10:39:06;20.50;99.90
10149;DHT22;5115;50.920;6.376;2023-08-07T10:41:42;20.60;99.90
10149;DHT22;5115;50.920;6.376;2023-08-07T10:44:27;21.00;99.90
10149;DHT22;5115;50.920;6.376;2023-08-07T10:46:57;21.40;99.90
10149;DHT22;5115;50.920;6.376;2023-08-07T10:49:30;21.30;99.90
10149;DHT22;5115;50.920;6.376;2023-08-07T10:51:58;21.30;99.90
10149;DHT22;5115;50.920;6.376;2023-08-07T10:54:24;20.80;99.90
10149;DHT22;5115;50.920;6.376;2023-08-07T10:56:54;20.80;99.90
10149;DHT22;5115;50.920;6.376;2023-08-07T10:59:20;20.70;99.90
10149;DHT22;5115;50.920;6.376;2023-08-07T11:01:51;21.00;99.90
10149;DHT22;5115;50.920;6.376;2023-08-07T11:04:18;21.30;99.90
10149;DHT22;5115;50.920;6.376;2023-08-07T11:06:46;21.30;99.90
10149;DHT22;5115;50.920;6.376;2023-08-07T11:09:12;21.30;99.90
10149;DHT22;5115;50.920;6.376;2023-08-07T11:11:46;22.10;99.90
10149;DHT22;5115;50.920;6.376;2023-08-07T11:16:38;21.90;99.90
10149;DHT22;5115;50.920;6.376;2023-08-07T11:19:05;21.70;99.90
10149;DHT22;5115;50.920;6.376;2023-08-07T11:21:32;21.80;99.90
10149;DHT22;5115;50.920;6.376;2023-08-07T11:23:58;21.80;99.90
10149;DHT22;5115;50.920;6.376;2023-08-07T11:26:24;21.80;99.90
10149;DHT22;5115;50.920;6.376;2023-08-07T11:28:51;22.00;99.90
10149;DHT22;5115;50.920;6.376;2023-08-07T11:31:18;25.10;99.90
10149;DHT22;5115;50.920;6.376;2023-08-07T11:36:12;22.00;99.90
10149;DHT22;5115;50.920;6.376;2023-08-07T11:38:42;22.00;99.90
10149;DHT22;5115;50.920;6.376;2023-08-07T11:41:09;22.70;99.90
10149;DHT22;5115;50.920;6.376;2023-08-07T11:43:37;23.00;99.90
10149;DHT22;5115;50.920;6.376;2023-08-07T11:46:05;22.90;99.90
10149;DHT22;5115;50.920;6.376;2023-08-07T11:48:34;22.50;99.90
10149;DHT22;5115;50.920;6.376;2023-08-07T11:51:00;22.50;99.90
10149;DHT22;5115;50.920;6.376;2023-08-07T11:53:30;22.50;99.90
10149;DHT22;5115;50.920;6.376;2023-08-07T11:56:03;22.60;99.90
10149;DHT22;5115;50.920;6.376;2023-08-07T11:58:46;22.40;99.90
10149;DHT22;5115;50.920;6.376;2023-08-07T12:06:26;21.90;99.90
10149;DHT22;5115;50.920;6.376;2023-08-07T12:08:56;21.60;99.90
10149;DHT22;5115;50.920;6.376;2023-08-07T12:11:22;21.70;99.90
10149;DHT22;5115;50.920;6.376;2023-08-07T12:13:48;21.50;99.90
10149;DHT22;5115;50.920;6.376;2023-08-07T12:16:14;21.50;99.90
10149;DHT22;5115;50.920;6.376;2023-08-07T12:18:45;21.00;99.90
10149;DHT22;5115;50.920;6.376;2023-08-07T12:21:14;21.00;99.90
10149;DHT22;5115;50.920;6.376;2023-08-07T12:23:40;21.30;99.90
10149;DHT22;5115;50.920;6.376;2023-08-07T12:26:06;21.40;99.90
10149;DHT22;5115;50.920;6.376;2023-08-07T12:28:33;21.50;99.90
10149;DHT22;5115;50.920;6.376;2023-08-07T12:30:59;21.70;99.90
10149;DHT22;5115;50.920;6.376;2023-08-07T12:33:25;21.70;99.90
10149;DHT22;5115;50.920;6.376;2023-08-07T12:35:51;21.60;99.90
10149;DHT22;5115;50.920;6.376;2023-08-07T12:40:45;21.80;99.90
10149;DHT22;5115;50.920;6.376;2023-08-07T12:43:11;21.80;99.90
10149;DHT22;5115;50.920;6.376;2023-08-07T12:45:37;21.80;99.90
10149;DHT22;5115;50.920;6.376;2023-08-07T12:48:03;21.60;99.90
10149;DHT22;5115;50.920;6.376;2023-08-07T12:50:29;21.50;99.90
10149;DHT22;5115;50.920;6.376;2023-08-07T12:52:54;21.70;99.90
10149;DHT22;5115;50.920;6.376;2023-08-07T12:55:20;21.50;99.90
10149;DHT22;5115;50.920;6.376;2023-08-07T12:57:46;21.60;99.90
10149;DHT22;5115;50.920;6.376;2023-08-07T13:00:13;21.70;99.90
10149;DHT22;5115;50.920;6.376;2023-08-07T13:02:46;21.80;99.90
10149;DHT22;5115;50.920;6.376;2023-08-07T13:05:13;21.80;99.90
10149;DHT22;5115;50.920;6.376;2023-08-07T13:07:40;21.90;99.90
10149;DHT22;5115;50.920;6.376;2023-08-07T13:10:07;21.90;99.90
10149;DHT22;5115;50.920;6.376;2023-08-07T13:12:35;21.70;99.90
10149;DHT22;5115;50.920;6.376;2023-08-07T13:15:00;21.40;99.90
10149;DHT22;5115;50.920;6.376;2023-08-07T13:17:26;21.40;99.90
10149;DHT22;5115;50.920;6.376;2023-08-07T13:19:52;20.70;99.90
10149;DHT22;5115;50.920;6.376;2023-08-07T13:22:17;20.60;99.90
10149;DHT22;5115;50.920;6.376;2023-08-07T13:24:43;20.70;99.90
10149;DHT22;5115;50.920;6.376;2023-08-07T13:27:08;20.80;99.90
10149;DHT22;5115;50.920;6.376;2023-08-07T13:29:34;20.80;99.90
10149;DHT22;5115;50.920;6.376;2023-08-07T13:32:01;20.90;99.90
10149;DHT22;5115;50.920;6.376;2023-08-07T13:34:29;20.90;99.90
10149;DHT22;5115;50.920;6.376;2023-08-07T13:36:54;20.90;99.90
10149;DHT22;5115;50.920;6.376;2023-08-07T13:39:20;21.20;99.90
10149;DHT22;5115;50.920;6.376;2023-08-07T13:41:46;21.20;99.90
10149;DHT22;5115;50.920;6.376;2023-08-07T13:44:13;21.40;99.90
10149;DHT22;5115;50.920;6.376;2023-08-07T13:46:38;21.40;99.90
10149;DHT22;5115;50.920;6.376;2023-08-07T13:49:04;21.50;99.90
10149;DHT22;5115;50.920;6.376;2023-08-07T13:51:29;21.60;99.90
10149;DHT22;5115;50.920;6.376;2023-08-07T13:53:55;20.40;99.90
10149;DHT22;5115;50.920;6.376;2023-08-07T13:56:20;21.60;99.90
10149;DHT22;5115;50.920;6.376;2023-08-07T13:58:46;21.70;99.90
10149;DHT22;5115;50.920;6.376;2023-08-07T14:01:12;21.80;99.90
10149;DHT22;5115;50.920;6.376;2023-08-07T14:03:37;21.80;99.90
10149;DHT22;5115;50.920;6.376;2023-08-07T14:06:03;21.40;99.90
10149;DHT22;5115;50.920;6.376;2023-08-07T14:08:28;21.40;99.90
10149;DHT22;5115;50.920;6.376;2023-08-07T14:10:54;21.30;99.90
10149;DHT22;5115;50.920;6.376;2023-08-07T14:13:20;21.20;99.90
10149;DHT22;5115;50.920;6.376;2023-08-07T14:15:45;21.40;99.90
10149;DHT22;5115;50.920;6.376;2023-08-07T14:18:11;21.40;99.90
10149;DHT22;5115;50.920;6.376;2023-08-07T14:20:38;21.60;99.90
10149;DHT22;5115;50.920;6.376;2023-08-07T14:23:04;21.60;99.90
10149;DHT22;5115;50.920;6.376;2023-08-07T14:25:29;21.60;99.90
10149;DHT22;5115;50.920;6.376;2023-08-07T14:27:55;21.70;99.90
10149;DHT22;5115;50.920;6.376;2023-08-07T14:30:21;21.60;99.90
10149;DHT22;5115;50.920;6.376;2023-08-07T14:32:46;21.60;99.90
10149;DHT22;5115;50.920;6.376;2023-08-07T14:35:15;21.70;99.90
10149;DHT22;5115;50.920;6.376;2023-08-07T14:37:40;21.90;99.90
10149;DHT22;5115;50.920;6.376;2023-08-07T14:40:07;21.70;99.90
10149;DHT22;5115;50.920;6.376;2023-08-07T14:42:34;21.70;99.90
10149;DHT22;5115;50.920;6.376;2023-08-07T14:45:00;21.80;99.90
10149;DHT22;5115;50.920;6.376;2023-08-07T14:47:26;21.70;99.90
10149;DHT22;5115;50.920;6.376;2023-08-07T14:49:51;21.70;99.90
10149;DHT22;5115;50.920;6.376;2023-08-07T14:52:17;21.70;99.90
10149;DHT22;5115;50.920;6.376;2023-08-07T14:54:43;21.60;99.90
10149;DHT22;5115;50.920;6.376;2023-08-07T14:57:09;21.50;99.90
10149;DHT22;5115;50.920;6.376;2023-08-07T14:59:35;21.40;99.90
10149;DHT22;5115;50.920;6.376;2023-08-07T15:02:01;23.00;99.90
10149;DHT22;5115;50.920;6.376;2023-08-07T15:04:26;21.30;99.90
10149;DHT22;5115;50.920;6.376;2023-08-07T15:06:52;21.50;99.90
10149;DHT22;5115;50.920;6.376;2023-08-07T15:09:18;21.60;99.90
10149;DHT22;5115;50.920;6.376;2023-08-07T15:11:47;21.70;99.90
10149;DHT22;5115;50.920;6.376;2023-08-07T15:14:13;21.70;99.90
10149;DHT22;5115;50.920;6.376;2023-08-07T15:16:39;21.60;99.90
10149;DHT22;5115;50.920;6.376;2023-08-07T15:19:05;21.70;99.90
10149;DHT22;5115;50.920;6.376;2023-08-07T15:21:31;21.00;99.90
10149;DHT22;5115;50.920;6.376;2023-08-07T15:23:56;21.80;99.90
10149;DHT22;5115;50.920;6.376;2023-08-07T15:26:23;21.80;99.90
10149;DHT22;5115;50.920;6.376;2023-08-07T15:28:50;21.70;99.90
10149;DHT22;5115;50.920;6.376;2023-08-07T15:31:16;21.50;99.90
10149;DHT22;5115;50.920;6.376;2023-08-07T15:33:42;21.50;99.90
10149;DHT22;5115;50.920;6.376;2023-08-07T15:36:12;21.50;99.90
10149;DHT22;5115;50.920;6.376;2023-08-07T15:38:38;21.60;99.90
10149;DHT22;5115;50.920;6.376;2023-08-07T15:41:04;21.60;99.90
10149;DHT22;5115;50.920;6.376;2023-08-07T15:43:29;21.70;99.90
10149;DHT22;5115;50.920;6.376;2023-08-07T15:45:56;21.70;99.90
10149;DHT22;5115;50.920;6.376;2023-08-07T15:48:22;21.60;99.90
10149;DHT22;5115;50.920;6.376;2023-08-07T15:50:48;21.60;99.90
10149;DHT22;5115;50.920;6.376;2023-08-07T15:53:13;21.60;99.90
10149;DHT22;5115;50.920;6.376;2023-08-07T15:55:39;21.40;99.90
10149;DHT22;5115;50.920;6.376;2023-08-07T15:58:06;21.20;99.90
10149;DHT22;5115;50.920;6.376;2023-08-07T16:00:33;21.20;99.90
10149;DHT22;5115;50.920;6.376;2023-08-07T16:03:06;21.10;99.90
10149;DHT22;5115;50.920;6.376;2023-08-07T16:05:34;21.10;99.90
10149;DHT22;5115;50.920;6.376;2023-08-07T16:08:00;21.20;99.90
10149;DHT22;5115;50.920;6.376;2023-08-07T16:10:26;21.20;99.90
10149;DHT22;5115;50.920;6.376;2023-08-07T16:12:53;21.20;99.90
10149;DHT22;5115;50.920;6.376;2023-08-07T16:15:20;21.30;99.90
10149;DHT22;5115;50.920;6.376;2023-08-07T16:17:47;21.30;99.90
10149;DHT22;5115;50.920;6.376;2023-08-07T16:20:12;21.40;99.90
10149;DHT22;5115;50.920;6.376;2023-08-07T16:22:38;21.40;99.90
10149;DHT22;5115;50.920;6.376;2023-08-07T16:25:04;21.30;99.90
10149;DHT22;5115;50.920;6.376;2023-08-07T16:27:31;21.10;99.90
10149;DHT22;5115;50.920;6.376;2023-08-07T16:29:56;21.10;99.90
10149;DHT22;5115;50.920;6.376;2023-08-07T16:32:29;20.90;99.90
10149;DHT22;5115;50.920;6.376;2023-08-07T16:34:54;22.00;99.90
10149;DHT22;5115;50.920;6.376;2023-08-07T16:37:21;20.90;99.90
10149;DHT22;5115;50.920;6.376;2023-08-07T16:39:47;20.90;99.90
10149;DHT22;5115;50.920;6.376;2023-08-07T16:42:12;20.80;99.90
10149;DHT22;5115;50.920;6.376;2023-08-07T16:44:38;20.80;99.90
10149;DHT22;5115;50.920;6.376;2023-08-07T16:47:04;20.70;99.90
10149;DHT22;5115;50.920;6.376;2023-08-07T16:49:32;20.70;99.90
10149;DHT22;5115;50.920;6.376;2023-08-07T16:51:58;20.70;99.90
10149;DHT22;5115;50.920;6.376;2023-08-07T16:54:24;20.80;99.90
10149;DHT22;5115;50.920;6.376;2023-08-07T16:56:50;18.80;99.90
10149;DHT22;5115;50.920;6.376;2023-08-07T16:59:15;20.80;99.90
10149;DHT22;5115;50.920;6.376;2023-08-07T17:04:09;20.60;99.90
10149;DHT22;5115;50.920;6.376;2023-08-07T17:06:34;20.60;99.90
10149;DHT22;5115;50.920;6.376;2023-08-07T17:09:00;20.60;99.90
10149;DHT22;5115;50.920;6.376;2023-08-07T17:11:26;20.30;99.90
10149;DHT22;5115;50.920;6.376;2023-08-07T17:14:00;20.60;99.90
10149;DHT22;5115;50.920;6.376;2023-08-07T17:16:26;20.60;99.90
10149;DHT22;5115;50.920;6.376;2023-08-07T17:21:22;20.70;99.90
10149;DHT22;5115;50.920;6.376;2023-08-07T17:23:48;20.70;99.90
10149;DHT22;5115;50.920;6.376;2023-08-07T17:26:14;20.70;99.90
10149;DHT22;5115;50.920;6.376;2023-08-07T17:28:39;20.50;99.90
10149;DHT22;5115;50.920;6.376;2023-08-07T17:31:05;20.50;99.90
10149;DHT22;5115;50.920;6.376;2023-08-07T17:33:32;20.50;99.90
10149;DHT22;5115;50.920;6.376;2023-08-07T17:36:03;20.50;99.90
10149;DHT22;5115;50.920;6.376;2023-08-07T17:38:29;20.60;99.90
10149;DHT22;5115;50.920;6.376;2023-08-07T17:40:54;20.60;99.90
10149;DHT22;5115;50.920;6.376;2023-08-07T17:43:20;20.60;99.90
10149;DHT22;5115;50.920;6.376;2023-08-07T17:45:46;20.60;99.90
10149;DHT22;5115;50.920;6.376;2023-08-07T17:48:11;20.60;99.90
10149;DHT22;5115;50.920;6.376;2023-08-07T17:50:37;22.10;99.90
10149;DHT22;5115;50.920;6.376;2023-08-07T17:53:03;20.60;99.90
10149;DHT22;5115;50.920;6.376;2023-08-07T17:55:29;20.70;99.90
10149;DHT22;5115;50.920;6.376;2023-08-07T17:57:55;20.60;99.90
10149;DHT22;5115;50.920;6.376;2023-08-07T18:00:21;20.60;99.90
10149;DHT22;5115;50.920;6.376;2023-08-07T18:02:47;20.40;99.90
10149;DHT22;5115;50.920;6.376;2023-08-07T18:05:15;20.40;99.90
10149;DHT22;5115;50.920;6.376;2023-08-07T18:07:41;20.30;99.90
10149;DHT22;5115;50.920;6.376;2023-08-07T18:10:08;20.30;99.90
10149;DHT22;5115;50.920;6.376;2023-08-07T18:12:34;20.20;99.90
10149;DHT22;5115;50.920;6.376;2023-08-07T18:15:00;20.20;99.90
10149;DHT22;5115;50.920;6.376;2023-08-07T18:17:26;20.20;99.90
10149;DHT22;5115;50.920;6.376;2023-08-07T18:19:52;20.20;99.90
10149;DHT22;5115;50.920;6.376;2023-08-07T18:22:19;20.20;99.90
10149;DHT22;5115;50.920;6.376;2023-08-07T18:24:45;20.10;99.90
10149;DHT22;5115;50.920;6.376;2023-08-07T18:27:11;20.10;99.90
10149;DHT22;5115;50.920;6.376;2023-08-07T18:29:38;18.60;99.90
10149;DHT22;5115;50.920;6.376;2023-08-07T18:32:04;20.10;99.90
10149;DHT22;5115;50.920;6.376;2023-08-07T18:34:32;20.00;99.90
10149;DHT22;5115;50.920;6.376;2023-08-07T18:36:57;19.90;99.90
10149;DHT22;5115;50.920;6.376;2023-08-07T18:39:23;19.80;99.90
10149;DHT22;5115;50.920;6.376;2023-08-07T18:41:48;19.70;99.90
10149;DHT22;5115;50.920;6.376;2023-08-07T18:44:14;19.70;99.90
10149;DHT22;5115;50.920;6.376;2023-08-07T18:46:41;19.70;99.90
10149;DHT22;5115;50.920;6.376;2023-08-07T18:49:07;19.70;99.90
10149;DHT22;5115;50.920;6.376;2023-08-07T18:51:32;19.60;99.90
10149;DHT22;5115;50.920;6.376;2023-08-07T18:53:59;19.60;99.90
10149;DHT22;5115;50.920;6.376;2023-08-07T18:56:25;19.40;99.90
10149;DHT22;5115;50.920;6.376;2023-08-07T18:58:51;19.40;99.90
10149;DHT22;5115;50.920;6.376;2023-08-07T19:01:17;19.40;99.90
10149;DHT22;5115;50.920;6.376;2023-08-07T19:03:43;19.20;99.90
10149;DHT22;5115;50.920;6.376;2023-08-07T19:06:08;19.20;99.90
10149;DHT22;5115;50.920;6.376;2023-08-07T19:08:36;19.20;99.90
10149;DHT22;5115;50.920;6.376;2023-08-07T19:11:02;19.10;99.90
10149;DHT22;5115;50.920;6.376;2023-08-07T19:13:28;18.90;99.90
10149;DHT22;5115;50.920;6.376;2023-08-07T19:15:54;18.80;99.90
10149;DHT22;5115;50.920;6.376;2023-08-07T19:18:20;18.80;99.90
10149;DHT22;5115;50.920;6.376;2023-08-07T19:20:46;18.70;99.90
10149;DHT22;5115;50.920;6.376;2023-08-07T19:23:11;18.70;99.90
10149;DHT22;5115;50.920;6.376;2023-08-07T19:25:37;18.70;99.90
10149;DHT22;5115;50.920;6.376;2023-08-07T19:28:03;18.50;99.90
10149;DHT22;5115;50.920;6.376;2023-08-07T19:30:29;18.50;99.90
10149;DHT22;5115;50.920;6.376;2023-08-07T19:32:55;18.50;99.90
10149;DHT22;5115;50.920;6.376;2023-08-07T19:35:20;18.40;99.90
10149;DHT22;5115;50.920;6.376;2023-08-07T19:37:46;18.40;99.90
10149;DHT22;5115;50.920;6.376;2023-08-07T19:40:13;18.30;99.90
10149;DHT22;5115;50.920;6.376;2023-08-07T19:45:06;17.00;99.90
10149;DHT22;5115;50.920;6.376;2023-08-07T19:47:31;18.20;99.90
10149;DHT22;5115;50.920;6.376;2023-08-07T19:49:57;18.20;99.90
10149;DHT22;5115;50.920;6.376;2023-08-07T19:52:23;18.20;99.90
10149;DHT22;5115;50.920;6.376;2023-08-07T19:54:48;18.10;99.90
10149;DHT22;5115;50.920;6.376;2023-08-07T19:57:14;18.10;99.90
10149;DHT22;5115;50.920;6.376;2023-08-07T19:59:39;18.10;99.90
10149;DHT22;5115;50.920;6.376;2023-08-07T20:02:06;18.10;99.90
10149;DHT22;5115;50.920;6.376;2023-08-07T20:04:32;18.10;99.90
10149;DHT22;5115;50.920;6.376;2023-08-07T20:06:58;18.10;99.90
10149;DHT22;5115;50.920;6.376;2023-08-07T20:09:28;18.10;99.90
10149;DHT22;5115;50.920;6.376;2023-08-07T20:11:53;18.10;99.90
10149;DHT22;5115;50.920;6.376;2023-08-07T20:14:19;18.10;99.90
10149;DHT22;5115;50.920;6.376;2023-08-07T20:16:46;18.10;99.90
10149;DHT22;5115;50.920;6.376;2023-08-07T20:19:11;18.10;99.90
10149;DHT22;5115;50.920;6.376;2023-08-07T20:21:40;18.00;99.90
10149;DHT22;5115;50.920;6.376;2023-08-07T20:24:06;18.10;99.90
10149;DHT22;5115;50.920;6.376;2023-08-07T20:26:32;18.00;99.90
10149;DHT22;5115;50.920;6.376;2023-08-07T20:29:00;18.00;99.90
10149;DHT22;5115;50.920;6.376;2023-08-07T20:31:26;18.00;99.90
10149;DHT22;5115;50.920;6.376;2023-08-07T20:33:51;18.00;99.90